Time;durP1;ratioP1;P1;durP2;ratioP2;P2;SDS_P1;SDS_P2;PMS_P1;PMS_P2;Temp;Humidity;BMP_temperature;BMP_pressure;BME280_temperature;BME280_humidity;BME280_pressure;Samples;Min_cycle;Max_cycle;Signal;HPM_P1;HPM_P2
2021/04/24 00:01:25;;;;;;;12.20;9.00;;;;;;;;;;5034090;28;20029;-77
2021/04/24 00:03:50;;;;;;;11.30;8.27;;;;;;;;;;5033745;28;20029;-76
2021/04/24 00:06:16;;;;;;;9.43;8.38;;;;;;;;;;5015984;28;20047;-76
2021/04/24 00:08:41;;;;;;;14.20;8.88;;;;;;;;;;5033502;28;20049;-76
2021/04/24 00:11:07;;;;;;;11.13;8.80;;;;;;;;;;5015174;28;20095;-76
2021/04/24 00:13:32;;;;;;;11.13;8.30;;;;;;;;;;5053091;28;20400;-76
2021/04/24 00:15:58;;;;;;;10.45;8.10;;;;;;;;;;5052881;28;20377;-75
2021/04/24 00:18:24;;;;;;;10.50;8.88;;;;;;;;;;5053545;28;20082;-77
2021/04/24 00:20:49;;;;;;;10.50;9.30;;;;;;;;;;5053366;28;20432;-75
2021/04/24 00:23:15;;;;;;;12.50;9.73;;;;;;;;;;5053614;28;20104;-75
2021/04/24 00:25:41;;;;;;;13.98;8.65;;;;;;;;;;5052771;28;20043;-76
2021/04/24 00:28:10;;;;;;;10.23;7.95;;;;;;;;;;5046954;28;20083;-75
2021/04/24 00:30:36;;;;;;;11.60;8.30;;;;;;;;;;5050000;28;20024;-75
2021/04/24 00:33:02;;;;;;;9.90;8.40;;;;;;;;;;5052776;28;20032;-75
2021/04/24 00:35:27;;;;;;;10.05;8.32;;;;;;;;;;5052105;28;20043;-75
2021/04/24 00:37:53;;;;;;;10.93;8.85;;;;;;;;;;5053166;28;20040;-75
2021/04/24 00:40:19;;;;;;;10.18;9.10;;;;;;;;;;5052058;28;20032;-75
2021/04/24 00:42:47;;;;;;;11.95;9.15;;;;;;;;;;5052651;28;20060;-75
2021/04/24 00:45:15;;;;;;;10.70;8.07;;;;;;;;;;5053340;28;20025;-75
2021/04/24 00:47:41;;;;;;;9.82;8.82;;;;;;;;;;5052497;28;20029;-75
2021/04/24 00:50:09;;;;;;;11.35;8.98;;;;;;;;;;5035018;28;20036;-77
2021/04/24 00:52:34;;;;;;;10.50;9.40;;;;;;;;;;5053003;28;20025;-76
2021/04/24 00:55:00;;;;;;;14.38;8.75;;;;;;;;;;5052875;28;20039;-76
2021/04/24 00:57:27;;;;;;;10.85;8.55;;;;;;;;;;5037687;28;20445;-77
2021/04/24 00:59:53;;;;;;;9.15;8.10;;;;;;;;;;5032643;28;20034;-75
2021/04/24 01:02:18;;;;;;;11.07;7.68;;;;;;;;;;5040549;28;20025;-75
2021/04/24 01:04:44;;;;;;;13.70;8.70;;;;;;;;;;5072560;28;20036;-77
2021/04/24 01:07:10;;;;;;;12.10;8.20;;;;;;;;;;5072543;28;20126;-75
2021/04/24 01:09:35;;;;;;;11.38;8.98;;;;;;;;;;5073074;28;20032;-75
2021/04/24 01:12:00;;;;;;;12.05;8.93;;;;;;;;;;5072485;28;20046;-75
2021/04/24 01:14:26;;;;;;;10.32;8.30;;;;;;;;;;5054768;28;20040;-76
2021/04/24 01:16:52;;;;;;;11.70;9.07;;;;;;;;;;5071896;28;20032;-75
2021/04/24 01:19:23;;;;;;;9.57;8.10;;;;;;;;;;5067755;28;20032;-75
2021/04/24 01:21:50;;;;;;;8.63;7.70;;;;;;;;;;5051769;28;20032;-75
2021/04/24 01:24:15;;;;;;;10.40;8.77;;;;;;;;;;5052123;28;20070;-75
2021/04/24 01:26:41;;;;;;;10.25;8.50;;;;;;;;;;5052224;28;20040;-76
2021/04/24 01:29:07;;;;;;;11.05;8.52;;;;;;;;;;5052282;28;20124;-75
2021/04/24 01:31:33;;;;;;;9.25;8.25;;;;;;;;;;5052062;28;20099;-76
2021/04/24 01:33:59;;;;;;;11.27;8.48;;;;;;;;;;5034186;28;20503;-75
2021/04/24 01:36:24;;;;;;;11.55;8.35;;;;;;;;;;5050847;28;20057;-75
2021/04/24 01:38:50;;;;;;;11.15;9.02;;;;;;;;;;5051892;28;20157;-76
2021/04/24 01:41:15;;;;;;;9.25;8.07;;;;;;;;;;5052266;28;20031;-76
2021/04/24 01:43:41;;;;;;;10.57;8.85;;;;;;;;;;5051906;28;20032;-77
2021/04/24 01:46:06;;;;;;;9.57;8.05;;;;;;;;;;5051667;28;20017;-76
2021/04/24 01:48:32;;;;;;;11.30;8.50;;;;;;;;;;5052321;28;20033;-77
2021/04/24 01:50:57;;;;;;;9.50;8.50;;;;;;;;;;5051435;28;20040;-76
2021/04/24 01:53:24;;;;;;;9.75;7.97;;;;;;;;;;5051978;28;20385;-75
2021/04/24 01:55:51;;;;;;;11.80;8.90;;;;;;;;;;5069683;28;20024;-76
2021/04/24 01:58:20;;;;;;;9.80;8.38;;;;;;;;;;5072094;28;20035;-76
2021/04/24 02:00:57;;;;;;;12.90;8.85;;;;;;;;;;5071675;28;20033;-76
2021/04/24 02:03:24;;;;;;;10.55;8.93;;;;;;;;;;5071895;28;20070;-77
2021/04/24 02:05:50;;;;;;;11.30;8.77;;;;;;;;;;5071728;28;20024;-76
2021/04/24 02:08:19;;;;;;;11.32;8.70;;;;;;;;;;5071492;28;20048;-77
2021/04/24 02:10:49;;;;;;;9.55;8.52;;;;;;;;;;5054692;28;20565;-75
2021/04/24 02:13:17;;;;;;;9.50;8.60;;;;;;;;;;5031589;28;20029;-76
2021/04/24 02:15:43;;;;;;;10.10;7.97;;;;;;;;;;5034530;28;20021;-76
2021/04/24 02:18:09;;;;;;;9.45;8.15;;;;;;;;;;5035917;28;20032;-75
2021/04/24 02:20:38;;;;;;;11.45;8.27;;;;;;;;;;5036192;28;20047;-77
2021/04/24 02:23:05;;;;;;;9.75;8.18;;;;;;;;;;5035634;28;20056;-75
2021/04/24 02:25:30;;;;;;;11.43;8.63;;;;;;;;;;5035709;28;20048;-76
2021/04/24 02:27:56;;;;;;;10.38;9.25;;;;;;;;;;5026422;28;20485;-75
2021/04/24 02:30:23;;;;;;;11.70;9.32;;;;;;;;;;5055448;28;20025;-75
2021/04/24 02:32:49;;;;;;;13.70;9.98;;;;;;;;;;5037722;28;20548;-75
2021/04/24 02:35:19;;;;;;;9.85;8.85;;;;;;;;;;5055498;28;20078;-75
2021/04/24 02:37:44;;;;;;;11.18;9.60;;;;;;;;;;5055762;28;20496;-76
2021/04/24 02:40:17;;;;;;;9.93;8.90;;;;;;;;;;5037433;28;20024;-75
2021/04/24 02:42:42;;;;;;;11.63;9.38;;;;;;;;;;5055019;28;20392;-75
2021/04/24 02:45:10;;;;;;;9.88;8.80;;;;;;;;;;5059212;28;20032;-75
2021/04/24 02:47:37;;;;;;;11.65;8.77;;;;;;;;;;5035370;28;20033;-76
2021/04/24 02:50:05;;;;;;;10.73;8.55;;;;;;;;;;5035122;28;20032;-75
2021/04/24 02:52:31;;;;;;;10.75;8.95;;;;;;;;;;5017611;28;20508;-75
2021/04/24 02:54:56;;;;;;;10.00;8.90;;;;;;;;;;5035175;28;20026;-75
2021/04/24 02:57:21;;;;;;;10.77;8.80;;;;;;;;;;5034922;28;20029;-75
2021/04/24 02:59:47;;;;;;;11.23;8.85;;;;;;;;;;5035439;28;20035;-75
2021/04/24 03:02:15;;;;;;;10.85;8.40;;;;;;;;;;5034726;28;20029;-76
2021/04/24 03:04:41;;;;;;;11.48;9.25;;;;;;;;;;5035198;28;20520;-75
2021/04/24 03:07:06;;;;;;;11.65;9.32;;;;;;;;;;5034832;28;20072;-75
2021/04/24 03:09:32;;;;;;;10.73;9.20;;;;;;;;;;5035114;28;20013;-75
2021/04/24 03:11:57;;;;;;;9.80;8.77;;;;;;;;;;5034450;28;20029;-76
2021/04/24 03:14:23;;;;;;;10.45;8.55;;;;;;;;;;5017227;28;20024;-75
2021/04/24 03:16:48;;;;;;;11.50;9.43;;;;;;;;;;5043519;28;20522;-76
2021/04/24 03:19:13;;;;;;;11.63;9.55;;;;;;;;;;5074594;28;20031;-76
2021/04/24 03:21:39;;;;;;;12.02;10.07;;;;;;;;;;5074663;28;20065;-75
2021/04/24 03:24:05;;;;;;;11.45;10.02;;;;;;;;;;5074453;28;20017;-75
2021/04/24 03:26:31;;;;;;;12.27;8.07;;;;;;;;;;5048747;28;20030;-75
2021/04/24 03:28:56;;;;;;;9.93;8.88;;;;;;;;;;5016790;28;20025;-75
2021/04/24 03:31:22;;;;;;;11.48;9.15;;;;;;;;;;5034690;28;20397;-77
2021/04/24 03:33:48;;;;;;;9.70;8.13;;;;;;;;;;5024695;28;20025;-75
2021/04/24 03:36:13;;;;;;;12.05;8.45;;;;;;;;;;5052939;28;20032;-75
2021/04/24 03:38:39;;;;;;;11.13;8.05;;;;;;;;;;5054588;28;20028;-75
2021/04/24 03:41:06;;;;;;;9.65;8.10;;;;;;;;;;5053785;28;20017;-75
2021/04/24 03:43:32;;;;;;;10.45;8.20;;;;;;;;;;5054256;28;20029;-75
2021/04/24 03:45:57;;;;;;;10.98;8.40;;;;;;;;;;5053943;28;20036;-75
2021/04/24 03:48:23;;;;;;;9.88;8.88;;;;;;;;;;5054190;28;20029;-77
2021/04/24 03:50:48;;;;;;;9.85;7.82;;;;;;;;;;5046653;28;20066;-75
2021/04/24 03:53:14;;;;;;;10.35;8.30;;;;;;;;;;5073898;28;20028;-75
2021/04/24 03:55:40;;;;;;;10.20;8.00;;;;;;;;;;5073905;28;20078;-77
2021/04/24 03:58:05;;;;;;;9.57;8.38;;;;;;;;;;5073964;28;20035;-75
2021/04/24 04:00:32;;;;;;;9.40;7.78;;;;;;;;;;5074219;28;20048;-76
2021/04/24 04:03:00;;;;;;;10.38;8.60;;;;;;;;;;5055751;28;20370;-75
2021/04/24 04:05:30;;;;;;;9.88;8.65;;;;;;;;;;5055801;28;20492;-75
2021/04/24 04:07:56;;;;;;;12.73;10.03;;;;;;;;;;5068456;28;20041;-75
2021/04/24 04:10:23;;;;;;;11.05;9.43;;;;;;;;;;5033619;28;20036;-76
2021/04/24 04:12:49;;;;;;;11.25;9.90;;;;;;;;;;5015907;28;20017;-75
2021/04/24 04:15:16;;;;;;;10.30;9.30;;;;;;;;;;5033666;28;20504;-75
2021/04/24 04:17:51;;;;;;;11.00;9.02;;;;;;;;;;5034012;28;20021;-75
2021/04/24 04:20:17;;;;;;;12.52;9.20;;;;;;;;;;5033573;28;20083;-75
2021/04/24 04:22:42;;;;;;;9.40;8.40;;;;;;;;;;5033539;28;22094;-75
2021/04/24 04:25:08;;;;;;;10.80;8.07;;;;;;;;;;5033071;28;20025;-76
2021/04/24 04:27:33;;;;;;;10.45;8.50;;;;;;;;;;5033444;28;20032;-76
2021/04/24 04:29:59;;;;;;;9.13;8.23;;;;;;;;;;5033563;28;20017;-76
2021/04/24 04:32:24;;;;;;;10.38;8.27;;;;;;;;;;5033653;28;20389;-75
2021/04/24 04:34:50;;;;;;;9.23;8.18;;;;;;;;;;5033535;28;20030;-75
2021/04/24 04:37:15;;;;;;;9.10;8.20;;;;;;;;;;5032849;28;20030;-76
2021/04/24 04:39:41;;;;;;;8.48;7.57;;;;;;;;;;5033216;28;20380;-75
2021/04/24 04:42:07;;;;;;;8.70;7.80;;;;;;;;;;5032626;28;20040;-75
2021/04/24 04:44:34;;;;;;;8.23;7.43;;;;;;;;;;5042831;28;20427;-75
2021/04/24 04:46:59;;;;;;;9.15;7.70;;;;;;;;;;5053317;28;20036;-75
2021/04/24 04:49:24;;;;;;;8.43;7.63;;;;;;;;;;5052933;28;20025;-76
2021/04/24 04:51:50;;;;;;;14.27;8.50;;;;;;;;;;5053136;28;20075;-75
2021/04/24 04:54:15;;;;;;;8.85;7.80;;;;;;;;;;5052409;28;20029;-76
2021/04/24 04:56:41;;;;;;;9.80;8.43;;;;;;;;;;5051938;28;20033;-76
2021/04/24 04:59:06;;;;;;;9.70;7.90;;;;;;;;;;5052945;28;20031;-76
2021/04/24 05:01:32;;;;;;;8.98;7.80;;;;;;;;;;5052697;28;20036;-75
2021/04/24 05:03:57;;;;;;;8.02;7.22;;;;;;;;;;5052874;28;20094;-75
2021/04/24 05:06:22;;;;;;;8.68;7.75;;;;;;;;;;5052528;28;20032;-75
2021/04/24 05:08:48;;;;;;;11.73;7.43;;;;;;;;;;5052323;28;20386;-76
2021/04/24 05:11:13;;;;;;;9.15;7.90;;;;;;;;;;5052535;28;20029;-75
2021/04/24 05:13:39;;;;;;;10.35;7.93;;;;;;;;;;5032895;28;20060;-75
2021/04/24 05:16:04;;;;;;;9.82;8.35;;;;;;;;;;5032950;28;20025;-75
2021/04/24 05:18:30;;;;;;;9.18;8.13;;;;;;;;;;5032440;28;20025;-75
2021/04/24 05:20:55;;;;;;;9.20;8.20;;;;;;;;;;5032532;28;20096;-77
2021/04/24 05:23:21;;;;;;;9.52;8.00;;;;;;;;;;5031807;28;20481;-75
2021/04/24 05:25:46;;;;;;;9.10;8.18;;;;;;;;;;5032485;28;20032;-77
2021/04/24 05:28:12;;;;;;;9.35;8.30;;;;;;;;;;5039048;28;20032;-75
2021/04/24 05:30:37;;;;;;;9.75;8.52;;;;;;;;;;5052329;28;20021;-75
2021/04/24 05:33:03;;;;;;;9.45;8.55;;;;;;;;;;5052379;28;20393;-75
2021/04/24 05:35:29;;;;;;;10.13;9.13;;;;;;;;;;5051385;28;20025;-75
2021/04/24 05:37:54;;;;;;;11.48;8.82;;;;;;;;;;5033808;28;20029;-75
2021/04/24 05:40:20;;;;;;;11.23;8.93;;;;;;;;;;5050666;28;20056;-75
2021/04/24 05:42:45;;;;;;;10.98;8.60;;;;;;;;;;5050610;28;20025;-75
2021/04/24 05:45:13;;;;;;;10.90;9.65;;;;;;;;;;5043102;28;20021;-75
2021/04/24 05:47:49;;;;;;;10.13;8.77;;;;;;;;;;5051620;28;20036;-75
2021/04/24 05:50:18;;;;;;;10.45;9.18;;;;;;;;;;5050956;28;20405;-75
2021/04/24 05:52:44;;;;;;;9.77;8.50;;;;;;;;;;5051131;28;20504;-76
2021/04/24 05:55:11;;;;;;;9.95;8.85;;;;;;;;;;5051748;28;20060;-75
2021/04/24 05:57:37;;;;;;;9.50;8.48;;;;;;;;;;5051337;28;20033;-75
2021/04/24 06:00:12;;;;;;;10.35;8.63;;;;;;;;;;5052054;28;20021;-75
2021/04/24 06:02:37;;;;;;;8.68;7.75;;;;;;;;;;5051949;28;20027;-75
2021/04/24 06:05:05;;;;;;;9.02;7.85;;;;;;;;;;5059150;28;20028;-76
2021/04/24 06:07:30;;;;;;;9.00;8.00;;;;;;;;;;5022343;28;20095;-76
2021/04/24 06:09:56;;;;;;;11.02;8.05;;;;;;;;;;5013251;28;20681;-75
2021/04/24 06:12:21;;;;;;;9.80;8.45;;;;;;;;;;5020260;28;20431;-76
2021/04/24 06:14:47;;;;;;;9.35;8.40;;;;;;;;;;5018151;28;20140;-75
2021/04/24 06:17:12;;;;;;;9.93;8.20;;;;;;;;;;5023030;28;20045;-76
2021/04/24 06:19:37;;;;;;;12.45;8.60;;;;;;;;;;5022979;28;20468;-75
2021/04/24 06:22:03;;;;;;;12.10;8.90;;;;;;;;;;5019498;28;20029;-75
2021/04/24 06:24:28;;;;;;;11.23;8.27;;;;;;;;;;5014517;28;20051;-76
2021/04/24 06:26:54;;;;;;;10.13;8.27;;;;;;;;;;5020032;28;20079;-76
2021/04/24 06:29:19;;;;;;;9.27;8.30;;;;;;;;;;5016624;28;20397;-76
2021/04/24 06:31:45;;;;;;;9.40;8.13;;;;;;;;;;5024838;28;20025;-76
2021/04/24 06:34:10;;;;;;;10.98;8.60;;;;;;;;;;5024622;28;20601;-76
2021/04/24 06:36:35;;;;;;;8.48;7.20;;;;;;;;;;5015911;28;20022;-75
2021/04/24 06:39:05;;;;;;;7.93;7.13;;;;;;;;;;5023880;28;20068;-76
2021/04/24 06:41:32;;;;;;;9.30;7.10;;;;;;;;;;5014552;28;20017;-75
2021/04/24 06:43:58;;;;;;;8.23;7.30;;;;;;;;;;5020469;28;20080;-76
2021/04/24 06:46:24;;;;;;;8.73;7.80;;;;;;;;;;5024947;28;20025;-76
2021/04/24 06:48:49;;;;;;;8.82;7.57;;;;;;;;;;5021608;28;20439;-76
2021/04/24 06:51:15;;;;;;;8.52;7.13;;;;;;;;;;5027153;28;20017;-76
2021/04/24 06:53:41;;;;;;;7.93;7.13;;;;;;;;;;5024543;28;20026;-76
2021/04/24 06:56:06;;;;;;;8.23;7.45;;;;;;;;;;5006805;28;20025;-75
2021/04/24 06:58:32;;;;;;;10.65;6.70;;;;;;;;;;5022732;28;20013;-76
2021/04/24 07:00:58;;;;;;;9.60;7.00;;;;;;;;;;5013821;28;20026;-76
2021/04/24 07:03:23;;;;;;;7.18;6.50;;;;;;;;;;5031493;28;20075;-75
2021/04/24 07:05:49;;;;;;;10.50;6.80;;;;;;;;;;5017198;28;20404;-75
2021/04/24 07:08:16;;;;;;;9.55;6.95;;;;;;;;;;5041154;28;20045;-75
2021/04/24 07:10:41;;;;;;;11.98;6.60;;;;;;;;;;5034696;28;20025;-75
2021/04/24 07:13:07;;;;;;;8.27;6.40;;;;;;;;;;5035047;28;20021;-75
2021/04/24 07:15:32;;;;;;;11.02;6.43;;;;;;;;;;5034971;28;20025;-75
2021/04/24 07:17:58;;;;;;;9.90;6.28;;;;;;;;;;5034744;28;20500;-76
2021/04/24 07:20:23;;;;;;;6.80;5.50;;;;;;;;;;5019415;28;20028;-76
2021/04/24 07:22:49;;;;;;;7.88;5.75;;;;;;;;;;5053195;28;20025;-74
2021/04/24 07:25:15;;;;;;;10.68;6.15;;;;;;;;;;5054138;28;20029;-77
2021/04/24 07:27:41;;;;;;;6.72;6.03;;;;;;;;;;5038926;28;20029;-79
2021/04/24 07:30:09;;;;;;;7.07;5.85;;;;;;;;;;5048731;28;20049;-79
2021/04/24 07:32:34;;;;;;;6.95;6.13;;;;;;;;;;5056080;28;20106;-79
2021/04/24 07:35:01;;;;;;;7.10;5.60;;;;;;;;;;5052379;28;20154;-79
2021/04/24 07:37:27;;;;;;;10.88;5.72;;;;;;;;;;5054581;28;20497;-81
2021/04/24 07:39:52;;;;;;;9.05;6.35;;;;;;;;;;5074839;28;20027;-80
2021/04/24 07:42:18;;;;;;;9.57;6.25;;;;;;;;;;5079450;28;20452;-79
2021/04/24 07:44:44;;;;;;;10.25;6.53;;;;;;;;;;5076536;28;20025;-80
2021/04/24 07:47:09;;;;;;;7.90;6.22;;;;;;;;;;5056158;28;20104;-78
2021/04/24 07:49:38;;;;;;;8.70;6.30;;;;;;;;;;5057570;28;20029;-80
2021/04/24 07:52:08;;;;;;;7.75;6.22;;;;;;;;;;5054413;28;20030;-78
2021/04/24 07:54:41;;;;;;;6.90;6.20;;;;;;;;;;5034654;28;20056;-76
2021/04/24 07:57:11;;;;;;;6.78;5.68;;;;;;;;;;5048876;28;20060;-74
2021/04/24 07:59:36;;;;;;;8.55;6.13;;;;;;;;;;5048210;28;20021;-73
2021/04/24 08:02:02;;;;;;;9.05;6.10;;;;;;;;;;5050419;28;20021;-74
2021/04/24 08:04:27;;;;;;;8.88;5.80;;;;;;;;;;5052095;28;20082;-74
2021/04/24 08:06:53;;;;;;;8.75;5.88;;;;;;;;;;5049191;28;20052;-74
2021/04/24 08:09:23;;;;;;;7.25;5.70;;;;;;;;;;5034564;28;20108;-75
2021/04/24 08:11:49;;;;;;;7.68;5.38;;;;;;;;;;5049008;28;20155;-74
2021/04/24 08:14:15;;;;;;;9.15;4.85;;;;;;;;;;5039153;28;20028;-74
2021/04/24 08:16:40;;;;;;;8.40;4.97;;;;;;;;;;5045288;28;20392;-76
2021/04/24 08:19:06;;;;;;;6.47;4.90;;;;;;;;;;5028994;28;20024;-75
2021/04/24 08:21:31;;;;;;;6.68;4.10;;;;;;;;;;5048910;28;20036;-75
2021/04/24 08:23:59;;;;;;;6.60;4.18;;;;;;;;;;5047394;28;20365;-76
2021/04/24 08:26:30;;;;;;;7.25;4.15;;;;;;;;;;5032606;28;20024;-75
2021/04/24 08:28:55;;;;;;;8.77;4.73;;;;;;;;;;5054204;28;20511;-75
2021/04/24 08:31:22;;;;;;;3.95;3.50;;;;;;;;;;5048562;28;20271;-75
2021/04/24 08:33:48;;;;;;;5.18;3.47;;;;;;;;;;5046090;28;20496;-75
2021/04/24 08:36:13;;;;;;;4.78;4.00;;;;;;;;;;5050730;28;20078;-76
2021/04/24 08:38:39;;;;;;;7.13;3.83;;;;;;;;;;5028850;28;20501;-76
2021/04/24 08:41:07;;;;;;;6.97;3.63;;;;;;;;;;5032357;28;20030;-76
2021/04/24 08:43:39;;;;;;;6.40;3.55;;;;;;;;;;5050181;28;20023;-75
2021/04/24 08:46:06;;;;;;;7.60;3.55;;;;;;;;;;5027006;28;20105;-78
2021/04/24 08:48:34;;;;;;;6.47;3.45;;;;;;;;;;5024892;28;20029;-76
2021/04/24 08:51:01;;;;;;;6.30;3.25;;;;;;;;;;5044494;28;20071;-75
2021/04/24 08:53:27;;;;;;;6.72;3.50;;;;;;;;;;5039499;28;20064;-75
2021/04/24 08:55:52;;;;;;;4.80;3.38;;;;;;;;;;5014462;28;20026;-75
2021/04/24 08:58:18;;;;;;;5.10;3.40;;;;;;;;;;5031180;28;20036;-76
2021/04/24 09:00:47;;;;;;;3.47;3.03;;;;;;;;;;5029846;28;20123;-76
2021/04/24 09:03:18;;;;;;;5.63;3.80;;;;;;;;;;5042350;28;20021;-74
2021/04/24 09:05:45;;;;;;;4.60;3.35;;;;;;;;;;5050792;28;20116;-77
2021/04/24 09:08:10;;;;;;;4.78;3.60;;;;;;;;;;5017448;28;20136;-75
2021/04/24 09:10:38;;;;;;;4.10;3.47;;;;;;;;;;5012731;28;20033;-77
2021/04/24 09:13:05;;;;;;;4.15;3.15;;;;;;;;;;5013190;28;20025;-75
2021/04/24 09:15:31;;;;;;;4.70;3.10;;;;;;;;;;5028395;28;20030;-76
2021/04/24 09:17:58;;;;;;;6.00;3.63;;;;;;;;;;5029989;28;20025;-75
2021/04/24 09:20:30;;;;;;;5.63;3.10;;;;;;;;;;5021332;28;20025;-76
2021/04/24 09:23:01;;;;;;;6.57;3.30;;;;;;;;;;5020597;28;20021;-75
2021/04/24 09:25:40;;;;;;;7.20;3.58;;;;;;;;;;5020014;28;20025;-75
2021/04/24 09:28:09;;;;;;;4.00;3.40;;;;;;;;;;5022641;28;20025;-77
2021/04/24 09:30:37;;;;;;;4.10;3.28;;;;;;;;;;5015644;28;20096;-76
2021/04/24 09:33:06;;;;;;;6.75;3.47;;;;;;;;;;5024194;28;20017;-76
2021/04/24 09:35:44;;;;;;;7.32;4.53;;;;;;;;;;5021005;28;20116;-77
2021/04/24 09:38:19;;;;;;;6.75;3.60;;;;;;;;;;5009456;28;20022;-75
2021/04/24 09:41:01;;;;;;;7.38;3.83;;;;;;;;;;5023384;28;20079;-75
2021/04/24 09:43:27;;;;;;;5.90;3.78;;;;;;;;;;5020558;28;20501;-75
2021/04/24 09:45:52;;;;;;;7.45;3.45;;;;;;;;;;5018952;28;20064;-75
2021/04/24 09:48:23;;;;;;;5.78;3.70;;;;;;;;;;5031894;28;20052;-75
2021/04/24 09:50:50;;;;;;;5.43;3.03;;;;;;;;;;5033998;28;20029;-76
2021/04/24 09:53:18;;;;;;;18.08;3.70;;;;;;;;;;5024794;28;20581;-74
2021/04/24 09:55:44;;;;;;;4.65;3.35;;;;;;;;;;5019529;28;20032;-76
2021/04/24 09:58:27;;;;;;;5.43;3.72;;;;;;;;;;5030402;28;20096;-76
2021/04/24 10:00:52;;;;;;;4.22;3.20;;;;;;;;;;5023434;28;20525;-78
2021/04/24 10:03:39;;;;;;;7.65;4.00;;;;;;;;;;5030426;28;20080;-78
2021/04/24 10:06:20;;;;;;;6.93;3.25;;;;;;;;;;5025602;28;20076;-77
2021/04/24 10:08:48;;;;;;;6.03;3.60;;;;;;;;;;5007769;28;20549;-77
2021/04/24 10:11:26;;;;;;;5.13;3.88;;;;;;;;;;5024123;28;20036;-76
2021/04/24 10:13:52;;;;;;;3.67;3.08;;;;;;;;;;5019820;28;20026;-79
2021/04/24 10:16:43;;;;;;;5.40;3.35;;;;;;;;;;5019043;28;20028;-77
2021/04/24 10:19:16;;;;;;;6.45;3.80;;;;;;;;;;5029463;28;20032;-78
2021/04/24 10:21:45;;;;;;;6.50;3.58;;;;;;;;;;5026177;28;20392;-80
2021/04/24 10:24:11;;;;;;;6.30;3.28;;;;;;;;;;5022279;28;20029;-79
2021/04/24 10:26:44;;;;;;;6.25;3.70;;;;;;;;;;5024643;28;20021;-80
2021/04/24 10:29:10;;;;;;;5.57;3.22;;;;;;;;;;5029778;28;20481;-79
2021/04/24 10:31:36;;;;;;;7.03;3.70;;;;;;;;;;5027018;28;20030;-78
2021/04/24 10:34:04;;;;;;;6.07;3.92;;;;;;;;;;5027407;28;20497;-78
2021/04/24 10:36:32;;;;;;;7.80;3.75;;;;;;;;;;5030501;28;20041;-77
2021/04/24 10:38:59;;;;;;;8.82;4.25;;;;;;;;;;5013461;28;20025;-79
2021/04/24 10:41:40;;;;;;;6.95;3.55;;;;;;;;;;5031051;28;20447;-79
2021/04/24 10:44:14;;;;;;;66.60;54.60;;;;;;;;;;5022981;28;20079;-80
2021/04/24 10:46:50;;;;;;;18.15;12.60;;;;;;;;;;5014627;28;20097;-80
2021/04/24 10:49:20;;;;;;;12.23;7.38;;;;;;;;;;5005517;28;20444;-77
2021/04/24 10:51:55;;;;;;;4.93;4.10;;;;;;;;;;5028681;28;20064;-80
2021/04/24 10:54:21;;;;;;;6.53;3.38;;;;;;;;;;5015147;28;20026;-80
2021/04/24 10:56:47;;;;;;;7.35;3.33;;;;;;;;;;5032857;28;20037;-79
2021/04/24 10:59:28;;;;;;;5.00;3.70;;;;;;;;;;5010183;28;20036;-79
2021/04/24 11:02:11;;;;;;;5.45;3.17;;;;;;;;;;5024735;28;20040;-77
2021/04/24 11:04:39;;;;;;;6.20;3.78;;;;;;;;;;5014094;28;20128;-78
2021/04/24 11:07:24;;;;;;;5.38;3.15;;;;;;;;;;5035410;28;20083;-79
2021/04/24 11:10:15;;;;;;;6.18;3.40;;;;;;;;;;5052603;28;20020;-78
2021/04/24 11:12:46;;;;;;;7.53;3.95;;;;;;;;;;5055365;28;20033;-78
2021/04/24 11:15:14;;;;;;;6.90;3.63;;;;;;;;;;5051815;28;20029;-79
2021/04/24 11:17:40;;;;;;;5.18;3.05;;;;;;;;;;5051705;28;20027;-79
2021/04/24 11:20:11;;;;;;;5.88;4.07;;;;;;;;;;5055862;28;20021;-78
2021/04/24 11:22:38;;;;;;;3.60;3.17;;;;;;;;;;5054684;28;20033;-79
2021/04/24 11:25:15;;;;;;;53.30;40.38;;;;;;;;;;5037264;28;20025;-79
2021/04/24 11:28:03;;;;;;;58.45;41.50;;;;;;;;;;5037862;28;20393;-80
2021/04/24 11:30:47;;;;;;;21.98;13.80;;;;;;;;;;5056168;28;20039;-78
2021/04/24 11:33:50;;;;;;;13.32;4.13;;;;;;;;;;5034544;28;20411;-81
2021/04/24 11:36:30;;;;;;;9.43;3.20;;;;;;;;;;5048135;28;20037;-81
2021/04/24 11:38:56;;;;;;;6.05;3.35;;;;;;;;;;5058152;28;20048;-80
2021/04/24 11:41:34;;;;;;;5.10;2.80;;;;;;;;;;5055318;28;20461;-79
2021/04/24 11:44:24;;;;;;;5.22;3.35;;;;;;;;;;5018554;28;20079;-80
2021/04/24 11:46:57;;;;;;;5.18;3.00;;;;;;;;;;5049294;28;20102;-80
2021/04/24 11:49:51;;;;;;;5.55;3.00;;;;;;;;;;5049542;28;20027;-80
2021/04/24 11:52:17;;;;;;;5.05;3.00;;;;;;;;;;5035797;28;20024;-81
2021/04/24 11:54:42;;;;;;;5.10;3.20;;;;;;;;;;5037968;28;20033;-81
2021/04/24 11:57:10;;;;;;;6.40;3.10;;;;;;;;;;5049888;28;20065;-81
2021/04/24 11:59:41;;;;;;;4.05;3.05;;;;;;;;;;5048865;28;20089;-80
2021/04/24 12:02:15;;;;;;;5.43;2.60;;;;;;;;;;5050565;28;20033;-81
2021/04/24 12:04:42;;;;;;;6.30;3.17;;;;;;;;;;5034605;28;20026;-81
2021/04/24 12:07:15;;;;;;;4.32;2.58;;;;;;;;;;5054043;28;20443;-81
2021/04/24 12:10:00;;;;;;;4.97;2.78;;;;;;;;;;5055980;28;20040;-80
2021/04/24 12:12:40;;;;;;;8.23;3.45;;;;;;;;;;5052131;28;20040;-80
2021/04/24 12:15:06;;;;;;;6.40;3.28;;;;;;;;;;5052358;28;20062;-81
2021/04/24 12:17:32;;;;;;;4.40;2.60;;;;;;;;;;5053931;28;20495;-80
2021/04/24 12:19:58;;;;;;;4.22;2.90;;;;;;;;;;5058194;28;20102;-80
2021/04/24 12:22:24;;;;;;;4.47;2.53;;;;;;;;;;5037809;28;20049;-81
2021/04/24 12:24:49;;;;;;;4.88;2.50;;;;;;;;;;5038266;28;20021;-80
2021/04/24 12:27:33;;;;;;;4.68;2.90;;;;;;;;;;5054296;28;20029;-80
2021/04/24 12:29:59;;;;;;;5.38;3.10;;;;;;;;;;5046138;28;20017;-80
2021/04/24 12:32:41;;;;;;;4.45;2.70;;;;;;;;;;5026416;28;20107;-80
2021/04/24 12:35:16;;;;;;;5.35;3.67;;;;;;;;;;5051874;28;20029;-80
2021/04/24 12:37:43;;;;;;;4.78;2.60;;;;;;;;;;5055489;28;20060;-80
2021/04/24 12:40:13;;;;;;;3.55;2.88;;;;;;;;;;5037225;28;20033;-81
2021/04/24 12:42:39;;;;;;;5.47;3.05;;;;;;;;;;5054839;28;20033;-80
2021/04/24 12:45:08;;;;;;;2.88;2.25;;;;;;;;;;5024793;28;20044;-79
2021/04/24 12:47:35;;;;;;;3.53;2.47;;;;;;;;;;5035987;28;20037;-77
2021/04/24 12:50:14;;;;;;;4.88;2.63;;;;;;;;;;5057103;28;20495;-75
2021/04/24 12:52:41;;;;;;;4.30;2.35;;;;;;;;;;5054126;28;20083;-78
2021/04/24 12:55:07;;;;;;;3.20;2.42;;;;;;;;;;5057016;28;20115;-77
2021/04/24 12:57:33;;;;;;;4.88;2.97;;;;;;;;;;5052690;28;20520;-76
2021/04/24 13:00:04;;;;;;;4.45;2.42;;;;;;;;;;5047281;28;20037;-76
2021/04/24 13:02:34;;;;;;;3.75;2.60;;;;;;;;;;5040941;28;20033;-78
2021/04/24 13:05:03;;;;;;;3.88;2.47;;;;;;;;;;5038994;28;20029;-79
2021/04/24 13:07:28;;;;;;;4.13;2.35;;;;;;;;;;5044928;28;20048;-79
2021/04/24 13:09:55;;;;;;;6.40;2.40;;;;;;;;;;5036441;28;20044;-80
2021/04/24 13:12:21;;;;;;;4.47;2.60;;;;;;;;;;5045828;28;20425;-79
2021/04/24 13:14:49;;;;;;;2.95;2.33;;;;;;;;;;5027297;28;20039;-80
2021/04/24 13:17:17;;;;;;;3.25;2.28;;;;;;;;;;5044494;28;20409;-81
2021/04/24 13:20:01;;;;;;;4.10;2.20;;;;;;;;;;5048724;28;20406;-80
2021/04/24 13:22:44;;;;;;;3.13;2.20;;;;;;;;;;5040116;28;20056;-79
2021/04/24 13:25:13;;;;;;;5.78;2.05;;;;;;;;;;5038429;28;20112;-79
2021/04/24 13:27:39;;;;;;;4.25;2.08;;;;;;;;;;5031440;28;20033;-80
2021/04/24 13:30:12;;;;;;;2.95;2.13;;;;;;;;;;5049374;28;20098;-80
2021/04/24 13:32:55;;;;;;;2.90;2.10;;;;;;;;;;5041084;28;20076;-79
2021/04/24 13:35:20;;;;;;;5.13;2.17;;;;;;;;;;5041469;28;20429;-79
2021/04/24 13:37:56;;;;;;;3.90;2.40;;;;;;;;;;5030945;28;20060;-79
2021/04/24 13:40:25;;;;;;;3.65;2.20;;;;;;;;;;5046518;28;20032;-79
2021/04/24 13:42:51;;;;;;;7.65;2.28;;;;;;;;;;5045239;28;20035;-80
2021/04/24 13:45:19;;;;;;;2.63;1.95;;;;;;;;;;5047828;28;20092;-82
2021/04/24 13:47:48;;;;;;;4.70;2.30;;;;;;;;;;5046306;28;20124;-81
2021/04/24 13:50:17;;;;;;;3.20;2.33;;;;;;;;;;5042912;28;20029;-81
2021/04/24 13:52:42;;;;;;;5.00;2.10;;;;;;;;;;5048509;28;20025;-81
2021/04/24 13:55:09;;;;;;;4.93;1.90;;;;;;;;;;5054221;28;20029;-81
2021/04/24 13:57:35;;;;;;;3.92;2.20;;;;;;;;;;5048679;28;20064;-79
2021/04/24 14:00:00;;;;;;;5.50;2.35;;;;;;;;;;5037615;28;20033;-80
2021/04/24 14:02:26;;;;;;;4.55;2.35;;;;;;;;;;5045260;28;20116;-80
2021/04/24 14:04:51;;;;;;;3.95;2.40;;;;;;;;;;5037644;28;20060;-80
2021/04/24 14:07:17;;;;;;;6.15;2.20;;;;;;;;;;5059075;28;20048;-79
2021/04/24 14:09:42;;;;;;;3.40;2.08;;;;;;;;;;5050860;28;20045;-79
2021/04/24 14:12:13;;;;;;;2.42;2.15;;;;;;;;;;5063886;28;20053;-80
2021/04/24 14:14:40;;;;;;;3.60;2.47;;;;;;;;;;5065944;28;20036;-80
2021/04/24 14:17:06;;;;;;;3.05;2.17;;;;;;;;;;5057452;28;20037;-80
2021/04/24 14:19:31;;;;;;;4.22;2.13;;;;;;;;;;5058710;28;20027;-80
2021/04/24 14:21:57;;;;;;;4.63;2.00;;;;;;;;;;5053784;28;20032;-79
2021/04/24 14:24:23;;;;;;;3.22;2.17;;;;;;;;;;5060432;28;20088;-79
2021/04/24 14:26:51;;;;;;;4.63;2.30;;;;;;;;;;5059230;28;20086;-80
2021/04/24 14:29:17;;;;;;;3.10;2.47;;;;;;;;;;5061885;28;20021;-78
2021/04/24 14:31:42;;;;;;;6.10;2.40;;;;;;;;;;5061382;28;20048;-80
2021/04/24 14:34:08;;;;;;;3.22;2.00;;;;;;;;;;5058892;28;20025;-79
2021/04/24 14:36:34;;;;;;;3.03;2.42;;;;;;;;;;5062152;28;20043;-79
2021/04/24 14:39:04;;;;;;;3.70;2.40;;;;;;;;;;5060215;28;20028;-80
2021/04/24 14:41:32;;;;;;;2.77;2.20;;;;;;;;;;5066882;28;20040;-79
2021/04/24 14:43:58;;;;;;;3.47;2.13;;;;;;;;;;5058877;28;20112;-80